TRA49E LEMG-LFMN
Flight info
| Callsign | TRA49E |
|---|---|
| Flight time | 1h 39m |
| Altitude | 34000 |
| Route | RIXUR M445 SOPET DCT DIKUT DCT TORDU DCT LOTOS DCT EBROX DCT PEXOT DCT RODRA DCT BCN DCT FEVIK N870 DALIN DCT PIVUS DCT DIBER DCT SOSUR DCT SOFFY DCT MRM DCT ABLAK |
| Aircraft | B738/M-SDE2E3FGHIJ1RWXYZ/LB1 |
Departure
| Time | 2026-05-04 10:21 |
|---|---|
| Airport | Málaga-Costa del Sol Airport (LEMG) |
Arrival
| Time | 2026-05-04 12:00 |
|---|---|
| Airport | Nice-Côte d'Azur Airport (LFMN) |
| Time | Latitude | Longitude | Altitude | Speed | Heading |
|---|---|---|---|---|---|
| 2026-05-04 10:02 | 36.67510 | -4.49361 | 41 ft | 0 kts | 117° |
| 2026-05-04 10:10 | 36.67516 | -4.49375 | 40 ft | 2 kts | 117° |
| 2026-05-04 10:10 | 36.67523 | -4.49391 | 41 ft | 2 kts | 117° |
| 2026-05-04 10:10 | 36.67530 | -4.49408 | 41 ft | 2 kts | 117° |
| 2026-05-04 10:10 | 36.67536 | -4.49424 | 41 ft | 2 kts | 117° |
| 2026-05-04 10:11 | 36.67543 | -4.49441 | 41 ft | 2 kts | 123° |
| 2026-05-04 10:11 | 36.67552 | -4.49456 | 41 ft | 2 kts | 128° |
| 2026-05-04 10:11 | 36.67555 | -4.49461 | 41 ft | 0 kts | 128° |
| 2026-05-04 10:14 | 36.67550 | -4.49458 | 41 ft | 3 kts | 154° |
| 2026-05-04 10:14 | 36.67522 | -4.49480 | 40 ft | 7 kts | 231° |
| 2026-05-04 10:16 | 36.67980 | -4.49651 | 41 ft | 14 kts | 41° |
| 2026-05-04 10:16 | 36.68052 | -4.49574 | 40 ft | 14 kts | 40° |
| 2026-05-04 10:16 | 36.68122 | -4.49497 | 41 ft | 13 kts | 43° |
| 2026-05-04 10:16 | 36.68190 | -4.49419 | 40 ft | 13 kts | 43° |
| 2026-05-04 10:17 | 36.68262 | -4.49336 | 38 ft | 14 kts | 50° |
| 2026-05-04 10:17 | 36.68264 | -4.49223 | 38 ft | 14 kts | 114° |
| 2026-05-04 10:19 | 36.67953 | -4.48481 | 39 ft | 15 kts | 118° |
| 2026-05-04 10:19 | 36.67902 | -4.48359 | 38 ft | 17 kts | 117° |
| 2026-05-04 10:19 | 36.67845 | -4.48222 | 35 ft | 19 kts | 117° |
| 2026-05-04 10:19 | 36.67782 | -4.48074 | 35 ft | 20 kts | 117° |
| 2026-05-04 10:20 | 36.67739 | -4.47909 | 32 ft | 20 kts | 65° |
| 2026-05-04 10:20 | 36.67852 | -4.47844 | 36 ft | 17 kts | 342° |
| 2026-05-04 10:20 | 36.67916 | -4.47953 | 37 ft | 18 kts | 300° |
| 2026-05-04 10:20 | 36.68031 | -4.48220 | 38 ft | 60 kts | 296° |
| 2026-05-04 10:21 | 36.68310 | -4.48885 | 43 ft | 111 kts | 297° |
| 2026-05-04 10:21 | 36.68738 | -4.49901 | 56 ft | 151 kts | 297° |
| 2026-05-04 10:21 | 36.69238 | -4.51083 | 508 ft | 154 kts | 298° |
| 2026-05-04 10:21 | 36.69904 | -4.52150 | 944 ft | 166 kts | 316° |
| 2026-05-04 10:22 | 36.73226 | -4.56467 | 3811 ft | 159 kts | 309° |
| 2026-05-04 10:23 | 36.74018 | -4.57516 | 4414 ft | 173 kts | 310° |
| 2026-05-04 10:23 | 36.74874 | -4.58613 | 5067 ft | 186 kts | 317° |
| 2026-05-04 10:25 | 36.85091 | -4.57727 | 10136 ft | 279 kts | 41° |
| 2026-05-04 10:25 | 36.86546 | -4.56047 | 10802 ft | 290 kts | 41° |
| 2026-05-04 10:25 | 36.88039 | -4.54342 | 11479 ft | 299 kts | 40° |
| 2026-05-04 10:25 | 36.89609 | -4.52601 | 12213 ft | 305 kts | 38° |
| 2026-05-04 10:26 | 36.91224 | -4.50840 | 12933 ft | 312 kts | 38° |
| 2026-05-04 10:26 | 36.92876 | -4.49038 | 13643 ft | 319 kts | 38° |
| 2026-05-04 10:26 | 36.94558 | -4.47190 | 14371 ft | 325 kts | 39° |
| 2026-05-04 10:26 | 36.96249 | -4.45294 | 15125 ft | 330 kts | 43° |
| 2026-05-04 10:27 | 36.97669 | -4.43011 | 15832 ft | 337 kts | 60° |
| 2026-05-04 10:27 | 36.98578 | -4.40290 | 16462 ft | 344 kts | 78° |
| 2026-05-04 10:27 | 36.99103 | -4.37365 | 16943 ft | 356 kts | 81° |
| 2026-05-04 10:27 | 36.99587 | -4.34267 | 17394 ft | 371 kts | 82° |
| 2026-05-04 10:28 | 37.00077 | -4.31031 | 17827 ft | 386 kts | 82° |
| 2026-05-04 10:28 | 37.00608 | -4.27670 | 18183 ft | 401 kts | 82° |
| 2026-05-04 10:28 | 37.01179 | -4.24205 | 18718 ft | 411 kts | 81° |
| 2026-05-04 10:28 | 37.01769 | -4.20684 | 19403 ft | 416 kts | 81° |
| 2026-05-04 10:29 | 37.02356 | -4.17128 | 20094 ft | 419 kts | 81° |
| 2026-05-04 10:29 | 37.02937 | -4.13534 | 20755 ft | 423 kts | 82° |
| 2026-05-04 10:29 | 37.03518 | -4.09901 | 21369 ft | 428 kts | 81° |
| 2026-05-04 10:29 | 37.04107 | -4.06226 | 21953 ft | 433 kts | 82° |
| 2026-05-04 10:30 | 37.04695 | -4.02574 | 22557 ft | 436 kts | 82° |
| 2026-05-04 10:30 | 37.05297 | -3.98838 | 23120 ft | 440 kts | 82° |
| 2026-05-04 10:30 | 37.05903 | -3.95068 | 23670 ft | 443 kts | 82° |
| 2026-05-04 10:30 | 37.06511 | -3.91268 | 24200 ft | 447 kts | 82° |
| 2026-05-04 10:31 | 37.07123 | -3.87430 | 24738 ft | 451 kts | 81° |
| 2026-05-04 10:31 | 37.07738 | -3.83559 | 25206 ft | 456 kts | 81° |
| 2026-05-04 10:32 | 37.13436 | -3.60460 | 27627 ft | 484 kts | 49° |
| 2026-05-04 10:33 | 37.15720 | -3.57336 | 27943 ft | 488 kts | 43° |
| 2026-05-04 10:33 | 37.18093 | -3.54284 | 28344 ft | 490 kts | 43° |
| 2026-05-04 10:33 | 37.20493 | -3.51243 | 28781 ft | 491 kts | 42° |
| 2026-05-04 10:33 | 37.22889 | -3.48188 | 29267 ft | 491 kts | 43° |
| 2026-05-04 10:34 | 37.25263 | -3.45112 | 29753 ft | 491 kts | 43° |
| 2026-05-04 10:34 | 37.27631 | -3.42015 | 30186 ft | 491 kts | 43° |
| 2026-05-04 10:34 | 37.29966 | -3.38965 | 30623 ft | 491 kts | 43° |
| 2026-05-04 10:34 | 37.32340 | -3.35880 | 31091 ft | 491 kts | 43° |
| 2026-05-04 10:35 | 37.34715 | -3.32804 | 31529 ft | 490 kts | 43° |
| 2026-05-04 10:35 | 37.37086 | -3.29731 | 31969 ft | 489 kts | 43° |
| 2026-05-04 10:35 | 37.39449 | -3.26656 | 32397 ft | 489 kts | 43° |
| 2026-05-04 10:35 | 37.41807 | -3.23578 | 32815 ft | 488 kts | 43° |
| 2026-05-04 10:36 | 37.44159 | -3.20504 | 33225 ft | 487 kts | 43° |
| 2026-05-04 10:36 | 37.46508 | -3.17434 | 33620 ft | 487 kts | 43° |
| 2026-05-04 10:36 | 37.48836 | -3.14393 | 33769 ft | 493 kts | 43° |
| 2026-05-04 10:36 | 37.51235 | -3.11261 | 33806 ft | 501 kts | 43° |
| 2026-05-04 10:37 | 37.56141 | -3.04832 | 33911 ft | 516 kts | 43° |
| 2026-05-04 10:37 | 37.61171 | -2.98222 | 34003 ft | 528 kts | 43° |
| 2026-05-04 10:39 | 37.76683 | -2.77769 | 34047 ft | 541 kts | 44° |
| 2026-05-04 10:39 | 37.79276 | -2.74338 | 34055 ft | 539 kts | 44° |
| 2026-05-04 10:40 | 37.84436 | -2.67500 | 34054 ft | 536 kts | 44° |
| 2026-05-04 10:40 | 37.89573 | -2.60676 | 34057 ft | 534 kts | 44° |
| 2026-05-04 10:41 | 37.94659 | -2.53905 | 34034 ft | 534 kts | 44° |
| 2026-05-04 10:41 | 37.99769 | -2.47086 | 34040 ft | 533 kts | 44° |
| 2026-05-04 10:42 | 38.04873 | -2.40266 | 34051 ft | 533 kts | 45° |
| 2026-05-04 10:42 | 38.09982 | -2.33418 | 34035 ft | 535 kts | 45° |
| 2026-05-04 10:43 | 38.15057 | -2.26604 | 34033 ft | 534 kts | 45° |
| 2026-05-04 10:45 | 38.34006 | -1.97531 | 34020 ft | 534 kts | 51° |
| 2026-05-04 10:45 | 38.38574 | -1.90134 | 34013 ft | 535 kts | 51° |
| 2026-05-04 10:46 | 38.43184 | -1.82639 | 34016 ft | 538 kts | 51° |
| 2026-05-04 10:46 | 38.47798 | -1.75111 | 34015 ft | 539 kts | 51° |
| 2026-05-04 10:47 | 38.52407 | -1.67583 | 34022 ft | 538 kts | 51° |
| 2026-05-04 10:47 | 38.57007 | -1.60051 | 34018 ft | 537 kts | 51° |
| 2026-05-04 10:49 | 38.75315 | -1.29895 | 34016 ft | 536 kts | 52° |
| 2026-05-04 10:50 | 38.79880 | -1.22339 | 34020 ft | 536 kts | 52° |
| 2026-05-04 10:52 | 38.98079 | -0.92024 | 34007 ft | 537 kts | 52° |
| 2026-05-04 10:52 | 39.02594 | -0.84461 | 34003 ft | 536 kts | 52° |
| 2026-05-04 10:54 | 39.21542 | -0.61647 | 33996 ft | 535 kts | 37° |
| 2026-05-04 10:54 | 39.24404 | -0.58586 | 33987 ft | 534 kts | 37° |
| 2026-05-04 10:56 | 39.47890 | -0.35317 | 33976 ft | 533 kts | 35° |
| 2026-05-04 10:57 | 39.53770 | -0.29578 | 33981 ft | 532 kts | 34° |
| 2026-05-04 10:57 | 39.59701 | -0.23822 | 33992 ft | 533 kts | 34° |
| 2026-05-04 10:58 | 39.65608 | -0.17992 | 33994 ft | 534 kts | 34° |
| 2026-05-04 10:58 | 39.71527 | -0.12166 | 34001 ft | 534 kts | 34° |
| 2026-05-04 10:59 | 39.77441 | -0.06351 | 34003 ft | 533 kts | 34° |
| 2026-05-04 10:59 | 39.83251 | -0.00453 | 34000 ft | 535 kts | 41° |
| 2026-05-04 11:00 | 39.88453 | 0.06508 | 34006 ft | 538 kts | 46° |
| 2026-05-04 11:02 | 40.08828 | 0.34966 | 33985 ft | 537 kts | 46° |
| 2026-05-04 11:05 | 40.46812 | 0.88635 | 33986 ft | 535 kts | 46° |
| 2026-05-04 11:06 | 40.51811 | 0.95775 | 33985 ft | 534 kts | 46° |
| 2026-05-04 11:06 | 40.56837 | 1.02969 | 33985 ft | 534 kts | 46° |
| 2026-05-04 11:10 | 40.91801 | 1.53512 | 33984 ft | 533 kts | 47° |
| 2026-05-04 11:12 | 41.11623 | 1.82547 | 33985 ft | 532 kts | 47° |
| 2026-05-04 11:12 | 41.16572 | 1.89840 | 33981 ft | 532 kts | 47° |
| 2026-05-04 11:13 | 41.21483 | 1.97090 | 33979 ft | 531 kts | 47° |
| 2026-05-04 11:13 | 41.26418 | 2.04401 | 33978 ft | 531 kts | 47° |
| 2026-05-04 11:14 | 41.30997 | 2.12070 | 33980 ft | 530 kts | 60° |
| 2026-05-04 11:16 | 41.43454 | 2.47487 | 33975 ft | 529 kts | 66° |
| 2026-05-04 11:16 | 41.46515 | 2.56412 | 33976 ft | 529 kts | 67° |
| 2026-05-04 11:17 | 41.49572 | 2.65347 | 33972 ft | 529 kts | 67° |
| 2026-05-04 11:19 | 41.61734 | 3.01096 | 33954 ft | 529 kts | 67° |
| 2026-05-04 11:19 | 41.64761 | 3.10069 | 33954 ft | 530 kts | 67° |
| 2026-05-04 11:20 | 41.67761 | 3.19000 | 33952 ft | 530 kts | 67° |
| 2026-05-04 11:20 | 41.70780 | 3.28001 | 33954 ft | 530 kts | 66° |
| 2026-05-04 11:22 | 41.82757 | 3.64028 | 33964 ft | 530 kts | 67° |
| 2026-05-04 11:23 | 41.85739 | 3.73075 | 33965 ft | 530 kts | 67° |
| 2026-05-04 11:25 | 41.96105 | 4.04748 | 33977 ft | 530 kts | 67° |
| 2026-05-04 11:25 | 41.99053 | 4.13829 | 33980 ft | 530 kts | 67° |
| 2026-05-04 11:27 | 42.15968 | 4.51168 | 34014 ft | 523 kts | 39° |
| 2026-05-04 11:28 | 42.21417 | 4.57644 | 34010 ft | 522 kts | 38° |
| 2026-05-04 11:28 | 42.26810 | 4.64164 | 34013 ft | 520 kts | 39° |
| 2026-05-04 11:29 | 42.32177 | 4.70692 | 34007 ft | 518 kts | 39° |
| 2026-05-04 11:29 | 42.37507 | 4.77141 | 34011 ft | 517 kts | 39° |
| 2026-05-04 11:31 | 42.56481 | 4.99155 | 34024 ft | 505 kts | 24° |
| 2026-05-04 11:33 | 42.79165 | 5.08918 | 32032 ft | 465 kts | 11° |
| 2026-05-04 11:33 | 42.82230 | 5.10151 | 31586 ft | 454 kts | 11° |
| 2026-05-04 11:33 | 42.85232 | 5.11345 | 31144 ft | 445 kts | 11° |
| 2026-05-04 11:34 | 42.88171 | 5.12509 | 30724 ft | 435 kts | 11° |
| 2026-05-04 11:34 | 42.91054 | 5.13654 | 30306 ft | 427 kts | 11° |
| 2026-05-04 11:34 | 42.93864 | 5.14775 | 29899 ft | 426 kts | 12° |
| 2026-05-04 11:34 | 42.96704 | 5.15909 | 29488 ft | 425 kts | 12° |
| 2026-05-04 11:35 | 42.99534 | 5.17045 | 29075 ft | 424 kts | 12° |
| 2026-05-04 11:35 | 43.02358 | 5.18180 | 28665 ft | 422 kts | 12° |
| 2026-05-04 11:35 | 43.05165 | 5.19312 | 28255 ft | 420 kts | 13° |
| 2026-05-04 11:35 | 43.07960 | 5.20451 | 27850 ft | 418 kts | 13° |
| 2026-05-04 11:36 | 43.10743 | 5.21591 | 27446 ft | 417 kts | 13° |
| 2026-05-04 11:36 | 43.13515 | 5.22726 | 27049 ft | 415 kts | 13° |
| 2026-05-04 11:36 | 43.16273 | 5.23852 | 26658 ft | 413 kts | 13° |
| 2026-05-04 11:36 | 43.18983 | 5.24956 | 26267 ft | 411 kts | 13° |
| 2026-05-04 11:37 | 43.21716 | 5.26071 | 25867 ft | 409 kts | 14° |
| 2026-05-04 11:37 | 43.24436 | 5.27184 | 25469 ft | 407 kts | 14° |
| 2026-05-04 11:37 | 43.27142 | 5.28293 | 25075 ft | 405 kts | 14° |
| 2026-05-04 11:37 | 43.29832 | 5.29396 | 24684 ft | 403 kts | 14° |
| 2026-05-04 11:38 | 43.32508 | 5.30494 | 24295 ft | 400 kts | 14° |
| 2026-05-04 11:38 | 43.35165 | 5.31586 | 23910 ft | 398 kts | 15° |
| 2026-05-04 11:38 | 43.37759 | 5.32883 | 23548 ft | 397 kts | 25° |
| 2026-05-04 11:38 | 43.40135 | 5.34797 | 23159 ft | 395 kts | 31° |
| 2026-05-04 11:39 | 43.42415 | 5.36808 | 22771 ft | 394 kts | 32° |
| 2026-05-04 11:39 | 43.44696 | 5.38880 | 22382 ft | 392 kts | 33° |
| 2026-05-04 11:40 | 43.53672 | 5.56280 | 20151 ft | 375 kts | 71° |
| 2026-05-04 11:41 | 43.54580 | 5.59631 | 19777 ft | 372 kts | 71° |
| 2026-05-04 11:41 | 43.55496 | 5.62944 | 19413 ft | 369 kts | 70° |
| 2026-05-04 11:41 | 43.56392 | 5.66190 | 19064 ft | 365 kts | 73° |
| 2026-05-04 11:41 | 43.56905 | 5.69571 | 18734 ft | 358 kts | 85° |
| 2026-05-04 11:42 | 43.57172 | 5.72963 | 18376 ft | 354 kts | 86° |
| 2026-05-04 11:42 | 43.57400 | 5.76333 | 18028 ft | 351 kts | 87° |
| 2026-05-04 11:42 | 43.57608 | 5.79668 | 17697 ft | 347 kts | 87° |
| 2026-05-04 11:42 | 43.57814 | 5.82970 | 17369 ft | 344 kts | 87° |
| 2026-05-04 11:43 | 43.58026 | 5.86229 | 17039 ft | 339 kts | 87° |
| 2026-05-04 11:43 | 43.58241 | 5.89444 | 16708 ft | 335 kts | 87° |
| 2026-05-04 11:43 | 43.58454 | 5.92616 | 16389 ft | 330 kts | 87° |
| 2026-05-04 11:43 | 43.58661 | 5.95745 | 16069 ft | 325 kts | 87° |
| 2026-05-04 11:44 | 43.58859 | 5.98788 | 15780 ft | 321 kts | 87° |
| 2026-05-04 11:44 | 43.59053 | 6.01831 | 15469 ft | 316 kts | 87° |
| 2026-05-04 11:44 | 43.59246 | 6.04865 | 15171 ft | 319 kts | 87° |
| 2026-05-04 11:44 | 43.59430 | 6.07933 | 14859 ft | 322 kts | 90° |
| 2026-05-04 11:45 | 43.59237 | 6.10994 | 14572 ft | 320 kts | 105° |
| 2026-05-04 11:45 | 43.58559 | 6.13898 | 14260 ft | 316 kts | 113° |
| 2026-05-04 11:45 | 43.57800 | 6.16714 | 13930 ft | 311 kts | 114° |
| 2026-05-04 11:45 | 43.57031 | 6.19471 | 13629 ft | 305 kts | 115° |
| 2026-05-04 11:46 | 43.56283 | 6.22138 | 13346 ft | 300 kts | 114° |
| 2026-05-04 11:46 | 43.55541 | 6.24808 | 13058 ft | 299 kts | 114° |
| 2026-05-04 11:46 | 43.54794 | 6.27513 | 12751 ft | 305 kts | 114° |
| 2026-05-04 11:46 | 43.54038 | 6.30266 | 12465 ft | 309 kts | 114° |
| 2026-05-04 11:47 | 43.53281 | 6.33012 | 12167 ft | 303 kts | 114° |
| 2026-05-04 11:47 | 43.52538 | 6.35702 | 11878 ft | 297 kts | 114° |
| 2026-05-04 11:47 | 43.51807 | 6.38341 | 11589 ft | 292 kts | 114° |
| 2026-05-04 11:47 | 43.51087 | 6.40937 | 11308 ft | 288 kts | 114° |
| 2026-05-04 11:48 | 43.50218 | 6.43414 | 11051 ft | 288 kts | 126° |
| 2026-05-04 11:48 | 43.48941 | 6.45534 | 10870 ft | 287 kts | 135° |
| 2026-05-04 11:48 | 43.47566 | 6.47539 | 10654 ft | 294 kts | 135° |
| 2026-05-04 11:48 | 43.46162 | 6.49561 | 10393 ft | 289 kts | 135° |
| 2026-05-04 11:49 | 43.44786 | 6.51535 | 10139 ft | 282 kts | 135° |
| 2026-05-04 11:49 | 43.43449 | 6.53454 | 10018 ft | 276 kts | 135° |
| 2026-05-04 11:49 | 43.42109 | 6.55379 | 9614 ft | 280 kts | 134° |
| 2026-05-04 11:49 | 43.40769 | 6.57310 | 9220 ft | 278 kts | 134° |
| 2026-05-04 11:50 | 43.39489 | 6.59270 | 8830 ft | 274 kts | 125° |
| 2026-05-04 11:50 | 43.38667 | 6.61588 | 8489 ft | 269 kts | 106° |
| 2026-05-04 11:50 | 43.38446 | 6.64124 | 8132 ft | 266 kts | 92° |
| 2026-05-04 11:50 | 43.38424 | 6.66631 | 7756 ft | 265 kts | 90° |
| 2026-05-04 11:51 | 43.38437 | 6.69160 | 7358 ft | 263 kts | 90° |
| 2026-05-04 11:51 | 43.38451 | 6.71664 | 7087 ft | 260 kts | 90° |
| 2026-05-04 11:51 | 43.38454 | 6.74096 | 6990 ft | 250 kts | 90° |
| 2026-05-04 11:51 | 43.38450 | 6.76435 | 6884 ft | 240 kts | 90° |
| 2026-05-04 11:52 | 43.38445 | 6.78687 | 6779 ft | 231 kts | 90° |
| 2026-05-04 11:52 | 43.38441 | 6.80856 | 6679 ft | 223 kts | 90° |
| 2026-05-04 11:52 | 43.38475 | 6.82946 | 6569 ft | 215 kts | 81° |
| 2026-05-04 11:52 | 43.39137 | 6.84733 | 6467 ft | 214 kts | 50° |
| 2026-05-04 11:53 | 43.40189 | 6.86191 | 6242 ft | 219 kts | 46° |
| 2026-05-04 11:53 | 43.41281 | 6.87647 | 6005 ft | 218 kts | 46° |
| 2026-05-04 11:53 | 43.42359 | 6.89108 | 5777 ft | 217 kts | 46° |
| 2026-05-04 11:53 | 43.43428 | 6.90564 | 5555 ft | 215 kts | 46° |
| 2026-05-04 11:55 | 43.50710 | 7.00515 | 3960 ft | 210 kts | 47° |
| 2026-05-04 11:55 | 43.51742 | 7.01927 | 3697 ft | 207 kts | 47° |
| 2026-05-04 11:56 | 43.52749 | 7.03307 | 3414 ft | 201 kts | 47° |
| 2026-05-04 11:56 | 43.53718 | 7.04634 | 3154 ft | 193 kts | 47° |
| 2026-05-04 11:56 | 43.54652 | 7.05916 | 2903 ft | 186 kts | 47° |
| 2026-05-04 11:56 | 43.55560 | 7.07164 | 2663 ft | 183 kts | 47° |
| 2026-05-04 11:57 | 43.56454 | 7.08390 | 2419 ft | 180 kts | 47° |
| 2026-05-04 11:57 | 43.57320 | 7.09581 | 2210 ft | 178 kts | 47° |
| 2026-05-04 11:57 | 43.58188 | 7.10771 | 1997 ft | 174 kts | 48° |
| 2026-05-04 11:57 | 43.59033 | 7.11933 | 1770 ft | 170 kts | 48° |
| 2026-05-04 11:58 | 43.59857 | 7.13068 | 1523 ft | 166 kts | 49° |
| 2026-05-04 11:58 | 43.60662 | 7.14173 | 1284 ft | 158 kts | 48° |
| 2026-05-04 11:58 | 43.61398 | 7.15184 | 1080 ft | 143 kts | 49° |
| 2026-05-04 11:58 | 43.62091 | 7.16140 | 919 ft | 138 kts | 49° |
| 2026-05-04 11:59 | 43.62753 | 7.17051 | 728 ft | 132 kts | 49° |
| 2026-05-04 11:59 | 43.63387 | 7.17923 | 551 ft | 126 kts | 48° |
| 2026-05-04 11:59 | 43.63990 | 7.18755 | 385 ft | 123 kts | 49° |
| 2026-05-04 11:59 | 43.64592 | 7.19585 | 233 ft | 122 kts | 48° |
| 2026-05-04 12:00 | 43.65194 | 7.20432 | 39 ft | 124 kts | 50° |
| 2026-05-04 12:00 | 43.65702 | 7.21139 | 25 ft | 72 kts | 45° |
| 2026-05-04 12:00 | 43.65994 | 7.21533 | 20 ft | 53 kts | 44° |
| 2026-05-04 12:00 | 43.66178 | 7.21744 | 20 ft | 19 kts | 6° |
| 2026-05-04 12:01 | 43.66285 | 7.21654 | 20 ft | 18 kts | 315° |
| 2026-05-04 12:01 | 43.66327 | 7.21594 | 20 ft | 0 kts | 314° |
| 2026-05-04 12:02 | 43.66353 | 7.21560 | 20 ft | 5 kts | 316° |
| 2026-05-04 12:03 | 43.66387 | 7.21523 | 20 ft | 8 kts | 323° |
| 2026-05-04 12:03 | 43.66427 | 7.21472 | 20 ft | 8 kts | 315° |
| 2026-05-04 12:03 | 43.66447 | 7.21445 | 20 ft | 0 kts | 315° |
| 2026-05-04 12:03 | 43.66449 | 7.21442 | 20 ft | 0 kts | 315° |